Time;durP1;ratioP1;P1;durP2;ratioP2;P2;SDS_P1;SDS_P2;PMS_P1;PMS_P2;Temp;Humidity;BMP_temperature;BMP_pressure;BME280_temperature;BME280_humidity;BME280_pressure;Samples;Min_cycle;Max_cycle;Signal;HPM_P1;HPM_P2
2022/08/30 00:02:17;;;;;;;4.53;2.90;;;20.00;54.00;;;;;;5046580;28;20483;-72
2022/08/30 00:04:44;;;;;;;3.28;2.50;;;19.90;53.70;;;;;;5039154;28;20413;-72
2022/08/30 00:07:12;;;;;;;3.20;2.40;;;19.90;52.80;;;;;;5046088;28;20429;-72
2022/08/30 00:09:39;;;;;;;2.90;2.50;;;19.90;53.10;;;;;;5044149;28;20433;-72
2022/08/30 00:12:06;;;;;;;4.70;2.90;;;19.80;53.10;;;;;;5046177;28;20447;-72
2022/08/30 00:14:32;;;;;;;5.07;3.00;;;19.80;53.70;;;;;;5035594;28;20433;-72
2022/08/30 00:16:59;;;;;;;4.03;2.80;;;19.80;53.90;;;;;;5026331;28;20419;-72
2022/08/30 00:19:26;;;;;;;4.60;2.42;;;19.70;53.90;;;;;;5041567;28;20952;-72
2022/08/30 00:21:53;;;;;;;4.17;2.70;;;19.70;54.40;;;;;;5045511;28;21080;-72
2022/08/30 00:24:21;;;;;;;3.55;2.60;;;19.70;54.00;;;;;;5045793;28;20451;-72
2022/08/30 00:26:48;;;;;;;3.63;2.78;;;19.70;54.00;;;;;;5044608;28;20478;-72
2022/08/30 00:29:14;;;;;;;3.30;2.60;;;19.70;54.40;;;;;;5046588;28;20413;-72
2022/08/30 00:31:41;;;;;;;4.35;2.78;;;19.70;55.10;;;;;;5045540;28;20440;-72
2022/08/30 00:34:08;;;;;;;3.50;2.50;;;19.70;53.70;;;;;;5034801;28;20431;-72
2022/08/30 00:36:35;;;;;;;3.33;2.80;;;19.70;54.70;;;;;;5036709;28;20523;-72
2022/08/30 00:39:02;;;;;;;3.40;2.20;;;19.70;53.90;;;;;;5045396;28;20544;-71
2022/08/30 00:41:30;;;;;;;3.63;2.90;;;19.70;54.30;;;;;;5044934;28;20505;-71
2022/08/30 00:43:58;;;;;;;3.20;2.50;;;19.70;55.90;;;;;;5045853;28;20439;-72
2022/08/30 00:46:24;;;;;;;3.60;2.45;;;19.70;55.10;;;;;;5045601;28;20830;-72
2022/08/30 00:48:52;;;;;;;3.80;2.50;;;19.70;54.70;;;;;;5045380;28;20435;-72
2022/08/30 00:51:20;;;;;;;3.40;2.70;;;19.70;55.00;;;;;;5041644;28;20619;-72
2022/08/30 00:53:50;;;;;;;3.78;2.60;;;19.70;55.50;;;;;;5045586;28;20429;-72
2022/08/30 00:56:18;;;;;;;4.97;2.70;;;19.60;54.90;;;;;;5043316;28;20451;-72
2022/08/30 00:58:51;;;;;;;4.10;2.40;;;19.60;54.90;;;;;;5045045;28;20485;-72
2022/08/30 01:01:19;;;;;;;4.28;2.50;;;19.50;55.80;;;;;;5033798;28;20515;-72
2022/08/30 01:03:47;;;;;;;3.15;2.42;;;19.50;55.10;;;;;;5040432;28;20450;-72
2022/08/30 01:06:14;;;;;;;2.60;2.17;;;19.50;55.90;;;;;;5044110;28;20919;-72
2022/08/30 01:08:41;;;;;;;3.50;2.50;;;19.50;56.10;;;;;;5045635;28;20441;-72
2022/08/30 01:11:11;;;;;;;3.08;2.45;;;19.50;56.30;;;;;;5036581;28;20518;-72
2022/08/30 01:13:39;;;;;;;3.58;2.50;;;19.50;55.50;;;;;;5045309;28;20440;-72
2022/08/30 01:16:08;;;;;;;3.30;2.40;;;19.50;55.30;;;;;;5045010;28;21123;-72
2022/08/30 01:18:38;;;;;;;3.22;2.72;;;19.50;55.20;;;;;;5044035;28;20425;-72
2022/08/30 01:21:11;;;;;;;2.70;2.40;;;19.50;56.10;;;;;;5042174;28;20482;-72
2022/08/30 01:23:43;;;;;;;2.88;2.40;;;19.50;55.80;;;;;;5044548;28;20444;-72
2022/08/30 01:26:11;;;;;;;3.23;2.43;;;19.50;55.80;;;;;;5044165;28;20544;-72
2022/08/30 01:28:40;;;;;;;2.60;2.40;;;19.50;56.60;;;;;;5045596;28;20501;-72
2022/08/30 01:31:08;;;;;;;4.00;2.60;;;19.50;55.40;;;;;;5043598;28;20447;-72
2022/08/30 01:33:37;;;;;;;3.40;2.90;;;19.50;55.40;;;;;;5044960;28;20425;-72
2022/08/30 01:36:09;;;;;;;5.00;2.70;;;19.50;55.50;;;;;;5043746;28;20421;-72
2022/08/30 01:38:41;;;;;;;3.70;2.70;;;19.50;56.10;;;;;;5038295;28;20512;-72
2022/08/30 01:41:11;;;;;;;3.78;2.40;;;19.50;55.80;;;;;;5041644;28;20455;-72
2022/08/30 01:43:38;;;;;;;3.83;2.65;;;19.50;55.00;;;;;;5044438;28;20409;-72
2022/08/30 01:46:05;;;;;;;3.20;2.90;;;19.50;55.20;;;;;;5043507;28;20417;-72
2022/08/30 01:48:33;;;;;;;4.70;2.70;;;19.50;55.10;;;;;;5038140;28;20477;-72
2022/08/30 01:51:00;;;;;;;4.68;3.00;;;19.50;54.80;;;;;;5024612;28;20438;-72
2022/08/30 01:53:27;;;;;;;3.83;2.83;;;19.50;54.90;;;;;;5044966;28;20493;-72
2022/08/30 01:55:55;;;;;;;3.00;2.58;;;19.50;55.30;;;;;;5042514;28;20859;-72
2022/08/30 01:58:22;;;;;;;3.67;3.00;;;19.50;56.00;;;;;;5044196;28;20433;-72
2022/08/30 02:00:49;;;;;;;3.83;2.50;;;19.50;56.60;;;;;;5044376;28;20847;-72
2022/08/30 02:03:15;;;;;;;3.80;3.00;;;19.50;55.30;;;;;;5043011;28;20429;-72
2022/08/30 02:05:42;;;;;;;3.58;2.70;;;19.50;55.70;;;;;;5043972;28;20414;-72
2022/08/30 02:08:09;;;;;;;3.45;2.80;;;19.50;55.20;;;;;;5039347;28;20423;-72
2022/08/30 02:10:36;;;;;;;3.35;2.60;;;19.50;55.10;;;;;;5040279;28;20437;-72
2022/08/30 02:13:04;;;;;;;2.53;2.30;;;19.50;55.20;;;;;;5043532;28;20440;-72
2022/08/30 02:15:31;;;;;;;3.67;2.75;;;19.50;54.80;;;;;;5043794;28;20421;-72
2022/08/30 02:17:58;;;;;;;3.28;2.60;;;19.60;55.30;;;;;;5034795;28;20434;-71
2022/08/30 02:20:25;;;;;;;4.40;2.50;;;19.50;55.20;;;;;;5024884;28;20873;-72
2022/08/30 02:22:51;;;;;;;3.00;2.50;;;19.50;55.50;;;;;;5038391;28;20439;-72
2022/08/30 02:25:18;;;;;;;3.20;2.40;;;19.50;56.70;;;;;;5043057;28;20872;-72
2022/08/30 02:27:46;;;;;;;3.45;2.50;;;19.50;55.40;;;;;;5044193;28;20417;-72
2022/08/30 02:30:14;;;;;;;4.00;2.80;;;19.50;55.20;;;;;;5043702;28;20505;-72
2022/08/30 02:32:41;;;;;;;3.30;2.50;;;19.50;55.30;;;;;;5031032;28;20455;-72
2022/08/30 02:35:08;;;;;;;2.72;2.30;;;19.50;55.90;;;;;;5024320;28;20508;-72
2022/08/30 02:37:36;;;;;;;3.15;2.63;;;19.50;55.60;;;;;;5038781;28;20440;-71
2022/08/30 02:40:05;;;;;;;3.65;2.55;;;19.50;56.60;;;;;;5044016;28;20451;-72
2022/08/30 02:42:31;;;;;;;3.78;2.55;;;19.50;56.70;;;;;;5036015;28;21068;-72
2022/08/30 02:44:59;;;;;;;4.07;2.80;;;19.50;56.50;;;;;;5044502;28;20472;-72
2022/08/30 02:47:27;;;;;;;3.70;2.60;;;19.50;56.60;;;;;;5034509;28;20553;-72
2022/08/30 02:49:54;;;;;;;3.30;3.00;;;19.50;57.00;;;;;;5027070;28;20425;-71
2022/08/30 02:52:21;;;;;;;4.70;2.63;;;19.40;56.10;;;;;;5043204;28;20900;-72
2022/08/30 02:54:48;;;;;;;3.30;2.70;;;19.40;56.80;;;;;;5044120;28;20882;-71
2022/08/30 02:57:15;;;;;;;3.50;2.60;;;19.40;56.70;;;;;;5042756;28;20443;-71
2022/08/30 02:59:44;;;;;;;4.35;2.50;;;19.30;57.00;;;;;;5043210;28;20484;-70
2022/08/30 03:02:11;;;;;;;3.03;2.55;;;19.30;57.30;;;;;;5035273;28;20975;-71
2022/08/30 03:04:39;;;;;;;3.30;2.50;;;19.30;57.60;;;;;;5030679;28;20471;-70
2022/08/30 03:07:07;;;;;;;3.00;2.70;;;19.30;56.90;;;;;;5042239;28;21149;-71
2022/08/30 03:09:34;;;;;;;3.20;2.60;;;19.30;58.30;;;;;;5044215;28;20413;-71
2022/08/30 03:12:01;;;;;;;4.10;2.90;;;19.30;57.90;;;;;;5061459;22;20438;-75
2022/08/30 03:14:28;;;;;;;4.18;2.85;;;19.20;58.00;;;;;;5027202;28;20927;-75
2022/08/30 03:16:55;;;;;;;3.42;2.47;;;19.20;57.90;;;;;;5027923;28;20478;-75
2022/08/30 03:19:22;;;;;;;3.60;2.92;;;19.20;58.00;;;;;;5045899;28;20501;-76
2022/08/30 03:21:51;;;;;;;2.70;2.50;;;19.20;57.80;;;;;;5050167;28;20909;-75
2022/08/30 03:24:18;;;;;;;3.45;2.60;;;19.20;58.00;;;;;;5041779;28;20423;-75
2022/08/30 03:26:45;;;;;;;3.77;2.60;;;19.20;58.30;;;;;;5029999;28;20837;-73
2022/08/30 03:29:12;;;;;;;3.70;2.60;;;19.20;58.20;;;;;;5040722;28;21089;-75
2022/08/30 03:31:39;;;;;;;3.40;2.97;;;19.10;58.40;;;;;;5032010;28;20433;-73
2022/08/30 03:34:06;;;;;;;3.55;2.78;;;19.10;58.00;;;;;;5035695;28;20457;-75
2022/08/30 03:36:33;;;;;;;4.30;3.28;;;19.10;58.50;;;;;;5047778;28;20893;-74
2022/08/30 03:39:01;;;;;;;3.58;2.33;;;19.10;59.00;;;;;;5048358;28;20433;-75
2022/08/30 03:41:28;;;;;;;4.80;3.00;;;19.10;59.10;;;;;;5048572;28;20504;-75
2022/08/30 03:43:55;;;;;;;3.10;2.63;;;19.10;59.60;;;;;;5039444;28;20445;-74
2022/08/30 03:46:21;;;;;;;3.45;2.70;;;19.10;59.70;;;;;;5033851;28;20952;-74
2022/08/30 03:48:48;;;;;;;3.28;2.80;;;19.00;59.60;;;;;;5049405;28;20474;-74
2022/08/30 03:51:15;;;;;;;4.38;2.92;;;19.00;59.50;;;;;;5049002;28;20445;-74
2022/08/30 03:53:42;;;;;;;4.13;3.03;;;19.00;59.90;;;;;;5045909;28;20421;-75
2022/08/30 03:56:10;;;;;;;3.00;2.70;;;19.00;60.00;;;;;;5043263;28;20451;-76
2022/08/30 03:58:39;;;;;;;2.60;2.40;;;19.00;60.20;;;;;;5035487;28;21190;-74
2022/08/30 04:01:06;;;;;;;4.82;2.85;;;18.90;60.50;;;;;;5033748;28;20433;-75
2022/08/30 04:03:33;;;;;;;3.80;2.60;;;18.90;60.00;;;;;;5044907;28;20421;-74
2022/08/30 04:06:00;;;;;;;4.60;3.00;;;18.80;60.20;;;;;;5046968;28;20866;-74
2022/08/30 04:08:28;;;;;;;3.67;2.70;;;18.80;60.30;;;;;;5041997;28;20425;-74
2022/08/30 04:10:55;;;;;;;4.60;3.00;;;18.70;60.60;;;;;;5038841;28;20431;-75
2022/08/30 04:13:24;;;;;;;4.32;2.88;;;18.70;60.80;;;;;;5035025;28;20425;-75
2022/08/30 04:15:51;;;;;;;4.18;2.80;;;18.70;61.00;;;;;;5034232;28;20528;-74
2022/08/30 04:18:18;;;;;;;5.97;3.30;;;18.60;61.40;;;;;;5048207;28;20989;-73
2022/08/30 04:20:45;;;;;;;3.97;3.00;;;18.50;61.70;;;;;;5048234;28;20502;-74
2022/08/30 04:23:12;;;;;;;3.28;2.97;;;18.50;60.70;;;;;;5047335;28;21184;-73
2022/08/30 04:25:40;;;;;;;3.70;2.90;;;18.50;60.90;;;;;;5033931;28;20442;-74
2022/08/30 04:28:08;;;;;;;3.55;2.67;;;18.50;60.70;;;;;;5032152;28;20479;-73
2022/08/30 04:30:39;;;;;;;3.40;3.10;;;18.40;61.50;;;;;;5048633;28;20529;-75
2022/08/30 04:33:06;;;;;;;3.05;2.75;;;18.40;61.60;;;;;;5039592;28;20483;-74
2022/08/30 04:35:33;;;;;;;3.30;3.00;;;18.40;61.90;;;;;;5040243;28;20543;-75
2022/08/30 04:38:00;;;;;;;4.57;3.30;;;18.30;62.00;;;;;;5032707;28;20423;-74
2022/08/30 04:40:27;;;;;;;3.75;3.10;;;18.40;62.30;;;;;;5042964;28;20442;-74
2022/08/30 04:42:55;;;;;;;4.30;3.10;;;18.30;62.00;;;;;;5045308;28;20501;-74
2022/08/30 04:45:22;;;;;;;4.10;3.10;;;18.30;61.80;;;;;;5044849;28;20516;-73
2022/08/30 04:47:50;;;;;;;3.97;3.00;;;18.30;62.30;;;;;;5041623;28;20430;-73
2022/08/30 04:50:20;;;;;;;5.65;3.60;;;18.30;62.20;;;;;;5056808;28;20433;-76
2022/08/30 04:52:47;;;;;;;6.43;3.25;;;18.30;62.70;;;;;;5069740;28;20425;-74
2022/08/30 04:55:14;;;;;;;5.60;3.30;;;18.30;63.00;;;;;;5069109;28;20456;-74
2022/08/30 04:57:42;;;;;;;4.82;3.40;;;18.30;63.20;;;;;;5063373;28;20855;-75
2022/08/30 05:00:11;;;;;;;4.30;3.40;;;18.30;63.00;;;;;;5064840;28;20757;-74
2022/08/30 05:02:39;;;;;;;4.20;3.10;;;18.30;62.50;;;;;;5058186;28;20428;-74
2022/08/30 05:07:54;;;;;;;4.82;3.30;;;18.50;62.80;;;;;;5061822;28;20423;-74
2022/08/30 05:10:21;;;;;;;4.32;3.17;;;18.50;62.00;;;;;;5063486;28;20460;-74
2022/08/30 05:12:48;;;;;;;4.13;3.28;;;18.50;62.20;;;;;;5051679;28;20439;-74
2022/08/30 05:15:15;;;;;;;4.73;3.00;;;18.60;62.70;;;;;;5051573;28;20433;-74
2022/08/30 05:17:42;;;;;;;3.65;3.10;;;18.60;63.20;;;;;;5047115;28;20440;-75
2022/08/30 05:20:12;;;;;;;3.53;2.90;;;18.60;62.50;;;;;;5044176;28;20492;-69
2022/08/30 05:22:42;;;;;;;5.97;3.00;;;18.70;62.80;;;;;;5041462;28;20568;-70
2022/08/30 05:25:09;;;;;;;4.25;3.05;;;18.70;62.30;;;;;;5037635;28;20442;-70
2022/08/30 05:27:35;;;;;;;4.70;2.83;;;18.70;62.30;;;;;;5054949;28;20457;-75
2022/08/30 05:30:05;;;;;;;5.63;3.20;;;18.70;62.10;;;;;;5054832;28;20895;-72
2022/08/30 05:32:31;;;;;;;4.85;3.20;;;18.70;62.00;;;;;;5049856;28;20506;-73
2022/08/30 05:34:58;;;;;;;5.47;3.00;;;18.80;62.80;;;;;;5053449;28;20457;-73
2022/08/30 05:37:26;;;;;;;5.43;3.70;;;18.80;63.30;;;;;;5044412;28;20429;-75
2022/08/30 05:39:53;;;;;;;5.28;3.45;;;18.80;62.70;;;;;;5055522;28;20522;-73
2022/08/30 05:42:20;;;;;;;4.07;3.30;;;18.80;62.50;;;;;;5046220;28;20527;-74
2022/08/30 05:44:51;;;;;;;4.93;3.20;;;18.80;63.30;;;;;;5047942;28;20973;-73
2022/08/30 05:47:18;;;;;;;3.97;3.13;;;18.80;62.70;;;;;;5038138;28;21054;-74
2022/08/30 05:49:44;;;;;;;5.03;2.90;;;18.90;62.00;;;;;;5039444;28;20917;-75
2022/08/30 05:52:14;;;;;;;3.72;2.80;;;18.90;61.30;;;;;;5046998;28;20943;-75
2022/08/30 05:54:42;;;;;;;6.55;2.90;;;18.90;61.10;;;;;;5043018;28;20438;-74
2022/08/30 05:57:09;;;;;;;4.78;3.55;;;18.90;61.30;;;;;;5049573;28;20455;-73
2022/08/30 05:59:36;;;;;;;4.30;2.90;;;19.00;61.40;;;;;;5052786;28;20981;-73
2022/08/30 06:02:04;;;;;;;3.80;3.20;;;19.00;60.80;;;;;;5043219;28;20460;-74
2022/08/30 06:04:31;;;;;;;5.27;3.60;;;19.00;62.10;;;;;;5046237;28;20427;-76
2022/08/30 06:06:58;;;;;;;4.28;2.95;;;19.10;61.50;;;;;;5043255;28;20429;-74
2022/08/30 06:09:24;;;;;;;6.00;3.60;;;19.10;61.30;;;;;;5049766;28;20466;-76
2022/08/30 06:11:53;;;;;;;8.30;6.80;;;19.20;62.20;;;;;;5053120;28;20409;-75
2022/08/30 06:14:20;;;;;;;11.75;5.90;;;19.20;61.30;;;;;;5056942;28;20807;-73
2022/08/30 06:16:47;;;;;;;10.30;5.38;;;19.30;61.00;;;;;;5058998;28;20477;-73
2022/08/30 06:19:15;;;;;;;9.40;5.00;;;19.40;61.00;;;;;;5062806;28;20433;-73
2022/08/30 06:21:42;;;;;;;8.20;4.68;;;19.50;61.40;;;;;;5052910;28;20437;-73
2022/08/30 06:24:11;;;;;;;4.75;4.00;;;19.60;61.00;;;;;;5053420;28;20497;-73
2022/08/30 06:26:40;;;;;;;5.97;3.88;;;19.60;61.10;;;;;;5051949;28;20448;-74
2022/08/30 06:29:09;;;;;;;6.13;3.50;;;19.60;60.20;;;;;;5052078;28;20437;-74
2022/08/30 06:31:36;;;;;;;5.07;3.80;;;19.70;60.50;;;;;;5048192;28;20470;-74
2022/08/30 06:34:04;;;;;;;5.73;3.70;;;19.70;60.40;;;;;;5057180;28;20421;-74
2022/08/30 06:36:31;;;;;;;5.38;3.80;;;19.70;60.30;;;;;;5058667;28;20932;-74
2022/08/30 06:38:59;;;;;;;7.22;3.65;;;19.70;60.40;;;;;;5044150;28;20415;-74
2022/08/30 06:41:28;;;;;;;6.50;3.38;;;19.70;61.80;;;;;;5049996;28;20475;-75
2022/08/30 06:43:56;;;;;;;5.78;3.40;;;19.60;61.10;;;;;;5044940;28;20424;-73
2022/08/30 06:46:26;;;;;;;5.95;3.10;;;19.60;61.10;;;;;;5037887;28;20439;-74
2022/08/30 06:48:53;;;;;;;6.65;3.58;;;19.60;61.50;;;;;;5037142;28;20506;-74
2022/08/30 06:51:21;;;;;;;4.70;3.50;;;19.60;60.90;;;;;;5048636;28;20517;-73
2022/08/30 06:53:48;;;;;;;7.50;5.47;;;19.60;61.00;;;;;;5050248;28;20508;-74
2022/08/30 06:56:16;;;;;;;7.60;5.13;;;19.70;60.40;;;;;;5047866;28;20429;-73
2022/08/30 06:58:43;;;;;;;4.82;3.33;;;19.90;60.60;;;;;;5042517;28;20468;-74
2022/08/30 07:01:12;;;;;;;3.95;3.50;;;19.90;59.60;;;;;;5049023;28;20913;-75
2022/08/30 07:03:40;;;;;;;6.60;3.45;;;20.00;59.70;;;;;;5048676;28;21203;-75
2022/08/30 07:06:08;;;;;;;6.97;3.40;;;20.10;59.90;;;;;;5047220;28;20417;-74
2022/08/30 07:08:35;;;;;;;4.80;3.47;;;20.10;58.80;;;;;;5030708;28;20469;-74
2022/08/30 07:11:02;;;;;;;6.55;3.70;;;20.20;58.70;;;;;;5042179;28;20421;-75
2022/08/30 07:13:30;;;;;;;5.05;3.42;;;20.40;58.40;;;;;;5042421;28;20463;-74
2022/08/30 07:15:57;;;;;;;7.57;3.92;;;20.50;58.10;;;;;;5039286;28;20422;-74
2022/08/30 07:21:11;;;;;;;4.68;3.30;;;20.80;56.80;;;;;;5042572;28;20452;-74
2022/08/30 07:23:38;;;;;;;5.40;3.17;;;21.00;56.00;;;;;;5047483;28;20429;-74
2022/08/30 07:26:07;;;;;;;3.20;2.90;;;21.10;56.00;;;;;;5045591;28;20419;-75
2022/08/30 07:28:36;;;;;;;5.13;3.10;;;21.10;55.50;;;;;;5048399;28;20417;-75
2022/08/30 07:31:06;;;;;;;4.65;3.30;;;21.10;55.00;;;;;;5038740;28;20427;-75
2022/08/30 07:33:37;;;;;;;3.70;2.90;;;21.10;54.90;;;;;;5044824;28;21011;-74
2022/08/30 07:36:06;;;;;;;5.78;3.40;;;21.20;55.00;;;;;;5043128;28;20490;-74
2022/08/30 07:38:34;;;;;;;4.72;3.10;;;21.30;54.20;;;;;;5039146;28;20449;-75
2022/08/30 07:41:01;;;;;;;5.15;3.20;;;21.40;53.70;;;;;;5038996;28;20427;-75
2022/08/30 07:43:28;;;;;;;6.05;3.33;;;21.60;54.00;;;;;;5036675;28;20430;-74
2022/08/30 07:45:56;;;;;;;5.70;3.05;;;21.80;54.00;;;;;;5047695;28;20500;-75
2022/08/30 07:48:23;;;;;;;3.60;3.00;;;22.00;52.70;;;;;;5048582;28;20435;-75
2022/08/30 07:50:50;;;;;;;3.60;2.50;;;22.20;51.50;;;;;;5041905;28;20498;-75
2022/08/30 07:53:17;;;;;;;3.40;2.70;;;22.40;50.70;;;;;;5043260;28;20876;-75
2022/08/30 07:55:45;;;;;;;3.53;2.50;;;22.60;50.60;;;;;;5038942;28;20892;-75
2022/08/30 07:58:12;;;;;;;4.38;2.80;;;22.80;50.10;;;;;;5047228;28;20425;-75
2022/08/30 08:00:39;;;;;;;5.93;2.90;;;23.00;49.80;;;;;;5047206;28;20513;-75
2022/08/30 08:03:07;;;;;;;5.75;2.60;;;23.20;49.00;;;;;;5048111;28;20413;-74
2022/08/30 08:05:37;;;;;;;4.18;2.92;;;23.40;49.50;;;;;;5047968;28;20548;-75
2022/08/30 08:08:04;;;;;;;5.07;2.60;;;23.60;47.90;;;;;;5048960;28;20436;-74
2022/08/30 08:10:31;;;;;;;3.10;2.80;;;23.60;46.60;;;;;;5051333;28;20492;-75
2022/08/30 08:13:00;;;;;;;3.78;2.40;;;23.60;46.50;;;;;;5048836;28;20411;-75
2022/08/30 08:15:27;;;;;;;4.70;2.53;;;23.70;46.40;;;;;;5062029;28;20417;-74
2022/08/30 08:17:54;;;;;;;6.35;2.70;;;23.70;46.10;;;;;;5064625;28;20491;-74
2022/08/30 08:20:21;;;;;;;2.63;2.42;;;23.70;45.80;;;;;;5049490;28;20435;-75
2022/08/30 08:22:48;;;;;;;4.90;2.47;;;23.70;45.90;;;;;;5052021;28;20496;-75
2022/08/30 08:25:15;;;;;;;4.63;2.33;;;23.80;45.60;;;;;;5058711;28;20833;-75
2022/08/30 08:27:42;;;;;;;3.40;2.50;;;24.00;45.60;;;;;;5057033;28;20434;-75
2022/08/30 08:30:11;;;;;;;3.70;2.70;;;24.30;45.00;;;;;;5061370;28;21193;-75
2022/08/30 08:32:39;;;;;;;7.60;2.75;;;24.60;44.70;;;;;;5059995;28;20460;-74
2022/08/30 08:35:06;;;;;;;3.47;2.22;;;24.80;44.40;;;;;;5048181;28;20429;-74
2022/08/30 08:37:33;;;;;;;4.13;2.53;;;25.00;42.60;;;;;;5045555;28;20433;-74
2022/08/30 08:40:00;;;;;;;4.13;2.50;;;25.20;42.10;;;;;;5042286;28;20496;-74
2022/08/30 08:42:36;;;;;;;4.50;2.55;;;25.40;42.10;;;;;;5046518;28;20454;-75
2022/08/30 08:45:08;;;;;;;3.70;2.10;;;25.60;41.40;;;;;;5030823;28;20506;-74
2022/08/30 08:47:40;;;;;;;3.20;2.08;;;25.80;41.20;;;;;;5044531;28;20433;-75
2022/08/30 08:50:13;;;;;;;5.22;2.58;;;25.90;41.20;;;;;;5051571;28;20437;-75
2022/08/30 08:55:38;;;;;;;3.97;2.17;;;26.10;40.40;;;;;;5047546;28;20888;-74
2022/08/30 08:58:04;;;;;;;4.20;2.33;;;26.10;39.50;;;;;;5050762;28;20414;-76
2022/08/30 09:00:32;;;;;;;4.10;2.75;;;26.20;39.90;;;;;;5067510;28;20900;-75
2022/08/30 09:03:03;;;;;;;4.22;2.20;;;26.30;39.60;;;;;;5047102;28;20413;-75
2022/08/30 09:05:37;;;;;;;3.58;2.47;;;26.60;39.00;;;;;;5039133;28;20437;-75
2022/08/30 09:08:07;;;;;;;4.80;2.25;;;26.80;38.60;;;;;;5056725;28;20501;-75
2022/08/30 09:10:35;;;;;;;3.10;2.30;;;26.90;38.30;;;;;;5059102;28;20415;-75
2022/08/30 09:13:02;;;;;;;4.15;2.40;;;27.00;38.00;;;;;;5071961;22;20442;-69
2022/08/30 09:15:31;;;;;;;2.80;2.13;;;27.10;37.10;;;;;;5038520;28;20425;-70
2022/08/30 09:18:02;;;;;;;4.50;2.50;;;27.30;36.90;;;;;;5050043;28;20417;-72
2022/08/30 09:20:33;;;;;;;6.03;2.50;;;27.60;37.20;;;;;;5046728;28;20516;-72
2022/08/30 09:23:20;;;;;;;3.70;2.10;;;27.90;36.10;;;;;;5045730;28;20729;-72
2022/08/30 09:25:51;;;;;;;3.80;2.30;;;28.00;35.80;;;;;;5045161;28;20948;-72
2022/08/30 09:28:22;;;;;;;4.03;2.22;;;28.20;35.00;;;;;;5041907;28;20455;-72
2022/08/30 09:31:00;;;;;;;4.32;2.05;;;28.40;34.70;;;;;;5044431;28;20433;-72
2022/08/30 09:33:28;;;;;;;4.45;2.30;;;28.50;34.70;;;;;;5046048;28;20417;-72
2022/08/30 09:35:56;;;;;;;3.33;2.03;;;28.50;34.70;;;;;;5044434;28;20441;-72
2022/08/30 09:38:26;;;;;;;3.00;2.47;;;28.30;34.70;;;;;;5045504;28;20519;-70
2022/08/30 09:40:54;;;;;;;3.15;2.20;;;28.00;35.30;;;;;;5044957;28;20436;-70
2022/08/30 09:43:23;;;;;;;2.70;2.20;;;27.70;35.90;;;;;;5036366;28;20512;-70
2022/08/30 09:46:07;;;;;;;3.67;2.22;;;27.40;36.30;;;;;;5037192;28;20434;-70
2022/08/30 09:48:39;;;;;;;3.08;2.00;;;27.10;36.50;;;;;;5042967;28;20440;-72
2022/08/30 09:51:38;;;;;;;5.05;2.53;;;27.00;36.70;;;;;;5044218;28;20495;-72
2022/08/30 09:54:12;;;;;;;28.50;4.40;;;27.00;37.10;;;;;;5037814;28;20440;-72
2022/08/30 09:56:48;;;;;;;19.38;4.40;;;27.10;37.10;;;;;;5044690;28;20420;-72
2022/08/30 09:59:35;;;;;;;9.40;3.00;;;27.40;36.80;;;;;;5044315;28;20437;-72
2022/08/30 10:02:06;;;;;;;6.07;2.90;;;27.80;34.80;;;;;;5041944;28;20461;-72
2022/08/30 10:04:43;;;;;;;2.67;2.20;;;28.20;34.40;;;;;;5044568;28;20420;-72
2022/08/30 10:07:15;;;;;;;3.47;1.88;;;28.50;33.60;;;;;;5036292;28;20452;-73
2022/08/30 10:09:51;;;;;;;3.10;2.00;;;28.80;32.80;;;;;;5053352;28;20421;-72
2022/08/30 10:12:27;;;;;;;2.70;2.10;;;29.10;32.00;;;;;;5044659;28;20422;-71
2022/08/30 10:15:06;;;;;;;2.42;2.10;;;29.40;31.80;;;;;;5044574;28;20421;-72
2022/08/30 10:17:46;;;;;;;2.47;1.90;;;29.60;31.20;;;;;;5043587;28;20518;-72
2022/08/30 10:20:23;;;;;;;2.80;1.90;;;29.80;30.60;;;;;;5044254;28;20927;-72
2022/08/30 10:22:56;;;;;;;2.00;1.80;;;30.00;29.80;;;;;;5044748;28;20756;-72
2022/08/30 10:25:26;;;;;;;2.83;1.87;;;30.30;30.00;;;;;;5044899;28;20421;-72
2022/08/30 10:27:58;;;;;;;4.63;2.00;;;30.40;29.70;;;;;;5044490;28;20829;-72
2022/08/30 10:30:25;;;;;;;2.60;2.10;;;30.60;29.10;;;;;;5044733;28;20409;-72
2022/08/30 10:32:58;;;;;;;3.13;2.10;;;30.80;29.30;;;;;;5042950;28;20439;-72
2022/08/30 10:35:29;;;;;;;3.70;2.00;;;30.90;28.80;;;;;;5039475;28;20446;-72
2022/08/30 10:38:03;;;;;;;5.38;1.83;;;30.90;28.50;;;;;;5045822;28;20485;-72
2022/08/30 10:43:24;;;;;;;2.00;1.80;;;30.80;28.40;;;;;;5044970;28;20846;-72
2022/08/30 10:45:54;;;;;;;2.75;2.03;;;30.60;28.80;;;;;;5044684;28;20444;-72
2022/08/30 10:48:27;;;;;;;2.10;1.90;;;30.30;29.20;;;;;;5044591;28;20521;-72
2022/08/30 10:50:59;;;;;;;3.38;2.20;;;30.20;29.50;;;;;;5043674;28;20431;-72
2022/08/30 10:53:31;;;;;;;2.53;2.00;;;30.00;29.60;;;;;;5039975;28;20439;-73
2022/08/30 10:56:03;;;;;;;2.90;2.30;;;29.80;29.90;;;;;;5044495;28;20516;-72
2022/08/30 10:58:31;;;;;;;3.97;2.10;;;29.60;30.00;;;;;;5044768;28;20425;-73
2022/08/30 11:01:20;;;;;;;3.38;2.10;;;29.40;30.30;;;;;;5056866;28;21055;-73
2022/08/30 11:04:27;;;;;;;3.80;2.30;;;29.30;30.30;;;;;;5034025;28;20706;-72
2022/08/30 11:07:07;;;;;;;2.58;2.30;;;29.20;30.20;;;;;;5032512;28;20472;-72
2022/08/30 11:09:59;;;;;;;3.80;2.20;;;29.20;30.30;;;;;;5042118;28;20429;-71
2022/08/30 11:12:35;;;;;;;4.47;2.50;;;29.20;30.20;;;;;;5044181;28;20432;-71
2022/08/30 11:15:16;;;;;;;3.67;2.58;;;29.30;29.90;;;;;;5043659;28;20436;-71
2022/08/30 11:17:47;;;;;;;4.30;2.20;;;29.60;29.70;;;;;;5043182;28;20428;-71
2022/08/30 11:20:28;;;;;;;1.95;1.75;;;29.80;29.60;;;;;;5033441;28;20525;-71
2022/08/30 11:23:24;;;;;;;2.20;2.00;;;30.00;29.20;;;;;;5041447;28;20464;-70
2022/08/30 11:25:53;;;;;;;2.28;2.08;;;30.30;29.30;;;;;;5036339;28;20898;-73
2022/08/30 11:28:56;;;;;;;2.72;2.00;;;30.60;28.60;;;;;;5043992;28;20874;-71
2022/08/30 11:31:36;;;;;;;2.13;1.90;;;30.90;28.20;;;;;;5041371;28;20815;-71
2022/08/30 11:34:04;;;;;;;2.65;1.80;;;31.30;27.50;;;;;;5042890;28;20508;-71
2022/08/30 11:37:05;;;;;;;3.38;2.20;;;31.50;27.60;;;;;;5039732;28;20437;-71
2022/08/30 11:39:56;;;;;;;3.67;2.10;;;31.80;27.70;;;;;;5031292;28;20881;-72
2022/08/30 11:42:41;;;;;;;2.78;1.88;;;31.90;27.30;;;;;;5044274;28;20433;-71
2022/08/30 11:45:50;;;;;;;2.13;1.98;;;31.90;27.20;;;;;;5045910;28;20480;-71
2022/08/30 11:48:42;;;;;;;2.30;1.70;;;31.80;27.60;;;;;;5007438;28;20438;-69
2022/08/30 11:51:28;;;;;;;2.70;2.50;;;31.60;27.80;;;;;;5045281;28;20548;-73
2022/08/30 11:54:03;;;;;;;2.85;2.42;;;31.50;27.80;;;;;;5044857;28;20470;-72
2022/08/30 11:56:42;;;;;;;3.00;2.17;;;31.70;28.00;;;;;;5047718;28;21079;-71
2022/08/30 11:59:25;;;;;;;3.33;2.00;;;32.00;27.90;;;;;;5054248;28;20468;-71
2022/08/30 12:01:52;;;;;;;3.92;2.10;;;32.30;27.50;;;;;;5047887;28;20425;-72
2022/08/30 12:04:43;;;;;;;3.83;2.03;;;32.60;27.20;;;;;;5043908;28;20441;-72
2022/08/30 12:07:11;;;;;;;2.53;2.30;;;32.80;26.70;;;;;;5039974;28;20883;-71
2022/08/30 12:10:04;;;;;;;3.40;1.90;;;32.70;26.70;;;;;;5046219;28;20519;-72
2022/08/30 12:12:59;;;;;;;2.38;2.10;;;32.70;26.60;;;;;;5047229;28;20413;-71
2022/08/30 12:15:49;;;;;;;2.50;2.30;;;32.80;26.90;;;;;;5006621;28;20425;-71
2022/08/30 12:18:29;;;;;;;2.80;2.10;;;33.10;27.00;;;;;;5036691;28;20421;-72
2022/08/30 12:21:08;;;;;;;2.42;2.05;;;33.20;26.40;;;;;;5045387;28;20463;-72
2022/08/30 12:23:40;;;;;;;3.00;2.00;;;32.90;26.50;;;;;;5045668;28;20528;-72
2022/08/30 12:26:14;;;;;;;2.88;2.08;;;32.70;26.60;;;;;;5054667;28;20431;-71
2022/08/30 12:28:45;;;;;;;3.95;2.00;;;32.30;26.90;;;;;;5063649;28;20445;-71
2022/08/30 12:31:15;;;;;;;3.30;2.40;;;31.80;27.30;;;;;;5042568;28;20473;-73
2022/08/30 12:33:44;;;;;;;4.50;2.15;;;31.50;27.80;;;;;;5046183;28;20481;-73
2022/08/30 12:36:29;;;;;;;3.70;2.30;;;31.30;28.30;;;;;;5038997;28;20444;-74
2022/08/30 12:39:09;;;;;;;2.10;1.90;;;31.20;28.40;;;;;;5046379;28;20477;-73
2022/08/30 12:41:36;;;;;;;2.40;2.00;;;31.40;28.40;;;;;;5039883;28;20453;-72
2022/08/30 12:44:08;;;;;;;2.60;1.85;;;31.80;28.40;;;;;;5041838;28;20630;-71
2022/08/30 12:46:35;;;;;;;3.17;2.10;;;32.20;27.80;;;;;;5044772;28;20443;-73
2022/08/30 12:49:02;;;;;;;4.35;2.25;;;32.60;27.30;;;;;;5038770;28;20463;-73
2022/08/30 12:51:35;;;;;;;2.47;2.28;;;32.90;26.90;;;;;;5044067;28;20504;-73
2022/08/30 12:54:15;;;;;;;4.68;2.20;;;33.20;26.80;;;;;;5045892;28;20414;-73
2022/08/30 12:57:01;;;;;;;8.32;2.20;;;33.30;26.20;;;;;;5037531;28;20741;-73
2022/08/30 12:59:56;;;;;;;5.65;2.25;;;33.30;26.00;;;;;;5032546;28;20443;-73
2022/08/30 13:02:26;;;;;;;3.25;2.17;;;33.30;26.40;;;;;;5045319;28;20899;-71
2022/08/30 13:04:55;;;;;;;4.07;1.90;;;33.50;26.10;;;;;;5038746;28;20441;-72
2022/08/30 13:07:31;;;;;;;3.10;1.80;;;33.70;25.70;;;;;;5042255;28;20594;-72
2022/08/30 13:10:06;;;;;;;2.00;1.85;;;33.80;25.40;;;;;;5043840;28;20444;-71
2022/08/30 13:12:34;;;;;;;3.95;1.88;;;33.80;25.60;;;;;;5041058;28;20456;-71
2022/08/30 13:15:18;;;;;;;3.17;1.90;;;34.00;25.20;;;;;;5044600;28;20452;-71